Antelope Valley, Nevada Weather observations

Data are for 10 minute period ending at time listed.
 Day   Time   Solar   Ave.   Ave.  Ave.  Vector  Max.   Baro.   Total    
  of    of     Rad.   Air    Rel.  Wind   Wind   Wind  Press.  Precip.   
Year   Day            Temp.  Hum.  Speed  Dir.   Gust                    
2014   (PST)  Kw/m2    F      %     mph   deg.    mph    mb.     in.     
-------------------------------------------------------------------------
 233   14:30   0.27   77.7    38    8.7   250    15.5   849.6    0.00 
 233   14:40   0.27   77.6    36    9.8   253    14.5   849.6    0.00 
 233   14:50   0.26   77.8    38    6.6   231    11.4   849.4    0.00 
 233   15:00   0.24   79.3    30    9.2   270    16.9   849.4    0.00 
 233   15:10   0.23   77.5    35    8.9   252    14.5   849.4    0.00 
 233   15:20   0.23   77.1    34   11.5   266    22.1   849.3    0.00 
 233   15:30   0.22   77.7    29   12.1   267    24.0   849.2    0.00 
 233   15:40   0.21   77.9    28   13.2   265    20.3   849.2    0.00 
 233   15:50   0.20   76.9    29   13.3   260    21.7   849.1    0.00 
 233   16:00   0.19   76.5    30   11.9   260    28.1   849.1    0.00 
 233   16:10   0.17   76.6    29   12.8   263    19.9   849.1    0.00 
 233   16:20   0.16   77.6    26   13.3   275    21.6   849.1    0.00 
 233   16:30   0.15   78.1    25   13.4   280    21.9   849.1    0.00 
 233   16:40   0.14   77.1    27   12.2   263    18.1   849.2    0.00 
 233   16:50   0.12   75.4    30   11.1   248    17.2   849.2    0.00 
 233   17:00   0.11   74.8    32    8.5   255    15.6   849.2    0.00 
 233   17:10   0.10   76.8    26   11.0   277    17.7   849.2    0.00 
 233   17:20   0.08   75.1    31    7.2   259    11.5   849.2    0.00 
 233   17:30   0.07   73.8    33    6.4   258    10.2   849.2    0.00 
 233   17:40   0.06   73.1    32    8.4   245    13.2   849.1    0.00 
 233   17:50   0.05   71.6    36    6.9   224    11.4   849.0    0.00 
 233   18:00   0.04   71.2    36    6.1   260     8.5   849.0    0.00 
 233   18:10   0.03   71.4    33    8.0   258    13.0   849.1    0.00 
 233   18:20   0.02   72.1    30    8.4   262    12.1   849.1    0.00 
 233   18:30   0.01   70.8    32    6.9   261    10.2   849.2    0.00 
 233   18:40   0.00   68.0    38    5.8   262     7.3   849.3    0.00 
 233   18:50   0.00   67.7    36    6.1   269     8.0   849.5    0.00 
 233   19:00   0.00   65.8    42    5.4   255     6.4   849.6    0.00 
 233   19:10   0.00   63.4    51    3.7   238     4.7   849.8    0.00 
 233   19:20   0.00   63.4    48    3.3   216     4.2   850.0    0.00 
 233   19:30   0.00   65.2    40    3.2   228     3.9   850.1    0.00 
 233   19:40   0.00   65.5    42    3.6   202     5.8   850.2    0.00 
 233   19:50   0.00   64.5    43    4.7   195     6.5   850.3    0.00 
 233   20:00   0.00   64.5    41    4.2   197     5.0   850.4    0.00 
 233   20:10   0.00   63.5    46    4.7   187     5.2   850.4    0.00 
 233   20:20   0.00   61.6    47    4.2   165     4.8   850.5    0.00 
 233   20:30   0.00   61.9    46    3.8   167     4.9   850.6    0.00 
 233   20:40   0.00   61.5    48    3.3   166     4.5   850.6    0.00 
 233   20:50   0.00   60.3    52    4.1   175     4.9   850.6    0.00 
 233   21:00   0.00   62.0    45    3.6   164     4.2   850.5    0.00 
 233   21:10   0.00   60.1    51    4.4   146     5.0   850.5    0.00 
 233   21:20   0.00   60.7    46    4.5   150     5.6   850.4    0.00 
 233   21:30   0.00   62.0    43    2.9   160     3.8   850.2    0.00 
 233   21:40   0.00   60.4    48    3.0   188     4.6   850.1    0.00 
 233   21:50   0.00   59.0    53    2.7   239     4.2   850.1    0.00 
 233   22:00   0.00   54.7    66    4.3   240     5.6   850.1    0.00 
 233   22:10   0.00   53.7    71    3.7   219     4.9   850.1    0.00 
 233   22:20   0.00   52.2    76    4.0   197     6.0   850.1    0.00 
 233   22:30   0.00   51.7    76    1.8   227     4.8   850.1    0.00 
 233   22:40   0.00   52.1    73    1.2   130     2.1   850.1    0.00 
 233   22:50   0.00   52.3    71    0.7   294     1.8   850.2    0.00 
 233   23:00   0.00   52.6    68    1.2   238     2.5   850.1    0.00 
 233   23:10   0.00   51.8    71    3.7   228     5.1   850.3    0.00 
 233   23:20   0.00   51.2    72    4.6   194     6.3   850.3    0.00 
 233   23:30   0.00   50.9    72    5.6   201     6.6   850.2    0.00 
 233   23:40   0.00   50.7    74    5.3   192     6.6   850.3    0.00 
 233   23:50   0.00   50.4    76    4.3   178     5.5   850.2    0.00 
 234    0:00   0.00   52.1    70    3.2   240     5.2   850.2    0.00 
 234    0:10   0.00   53.4    64    2.7   240     4.9   850.3    0.00 
 234    0:20   0.00   55.0    64    4.5   207     7.3   850.3    0.00 
 234    0:30   0.00   56.1    63    5.3   192     7.1   850.3    0.00 
 234    0:40   0.00   56.6    62    6.4   190     8.0   850.2    0.00 
 234    0:50   0.00   56.4    61    6.7   195     9.1   850.3    0.00 
 234    1:00   0.00   56.0    62    4.2   220     8.3   850.3    0.00 
 234    1:10   0.00   56.8    60    1.4   163     2.8   850.4    0.00 
 234    1:20   0.00   57.0    60    1.4   200     3.7   850.4    0.00 
 234    1:30   0.00   56.6    61    4.3   245     7.4   850.3    0.00 
 234    1:40   0.00   57.1    61    3.7   234     6.7   850.4    0.00 
 234    1:50   0.00   56.2    66    3.6   173     5.3   850.4    0.00 
 234    2:00   0.00   58.1    58    4.8   178     8.7   850.5    0.00 
 234    2:10   0.00   61.2    51    3.3   175     5.3   850.5    0.00 
 234    2:20   0.00   60.3    57    4.8   180     7.3   850.6    0.00 
 234    2:30   0.00   60.8    54    5.9   192    12.2   850.6    0.00 
 234    2:40   0.00   58.4    61    5.9   181     7.5   850.6    0.00 
 234    2:50   0.00   57.8    61    5.6   179     7.2   850.5    0.00 
 234    3:00   0.00   57.5    60    6.0   203     6.6   850.6    0.00 
 234    3:10   0.00   57.7    60    5.5   201     6.3   850.5    0.00 
 234    3:20   0.00   55.9    68    4.8   181     5.8   850.5    0.00 
 234    3:30   0.00   55.7    69    4.1   198     5.0   850.5    0.00 
 234    3:40   0.00   55.7    70    4.6   194     5.8   850.4    0.00 
 234    3:50   0.00   56.5    67    4.5   212     5.4   850.4    0.00 
 234    4:00   0.00   57.6    63    5.9   213     8.5   850.4    0.00 
 234    4:10   0.00   58.7    60    6.8   220     9.4   850.4    0.00 
 234    4:20   0.00   57.7    63    5.1   221     7.7   850.4    0.00 
 234    4:30   0.00   55.4    73    3.5   218     4.1   850.4    0.00 
 234    4:40   0.00   55.1    71    4.6   246     5.4   850.5    0.00 
 234    4:50   0.00   55.6    68    4.9   247     6.1   850.5    0.00 
 234    5:00   0.00   56.6    63    4.3   229     5.7   850.6    0.00 
 234    5:10   0.00   55.7    66    4.2   221     5.6   850.6    0.00 
 234    5:20   0.00   54.8    68    4.8   184     5.8   850.6    0.00 
 234    5:30   0.01   54.9    65    5.1   189     6.9   850.7    0.00 
 234    5:40   0.01   54.0    70    3.2   205     5.7   850.8    0.00 
 234    5:50   0.02   55.3    65    5.3   177     6.5   850.8    0.00 
 234    6:00   0.02   56.8    62    5.1   181     6.7   850.8    0.00 
 234    6:10   0.03   57.9    61    5.1   180     7.4   850.8    0.00 
 234    6:20   0.06   58.9    60    4.9   189     6.7   850.9    0.00 
 234    6:30   0.11   62.0    59    4.5   198     7.0   850.9    0.00 
 234    6:40   0.07   62.8    56    5.9   192     8.5   850.9    0.00 
 234    6:50   0.13   63.2    57    5.4   193     7.0   850.9    0.00 
 234    7:00   0.17   65.0    56    6.1   196     9.0   850.8    0.00 
 234    7:10   0.19   66.0    57    5.7   198     8.1   850.8    0.00 
 234    7:20   0.15   66.3    56    5.4   201     8.8   850.9    0.00 
 234    7:30   0.12   65.9    54    5.1   198     8.3   850.7    0.00 
 234    7:40   0.16   66.3    57    4.7   197     7.5   850.8    0.00 
 234    7:50   0.13   66.7    59    3.9   197     6.0   850.7    0.00 
 234    8:00   0.12   66.0    61    3.8   197     5.9   850.7    0.00 
 234    8:10   0.14   66.5    63    2.5   186     4.2   850.6    0.00 
 234    8:20   0.12   66.9    56    2.3   210     4.5   850.6    0.00 
 234    8:30   0.15   67.2    61    2.4   219     3.7   850.6    0.00 
 234    8:40   0.15   68.0    59    3.5   220     5.9   850.5    0.00 
 234    8:50   0.15   68.6    59    3.6   202     5.2   850.5    0.00 
 234    9:00   0.12   68.2    53    6.1   244    11.6   850.4    0.00 
 234    9:10   0.07   65.2    56    6.3   261     9.6   850.5    0.00 
 234    9:20   0.18   66.8    49    7.6   274    13.1   850.5    0.00 
 234    9:30   0.29   70.4    51    4.3   204     7.4   850.4    0.00 
 234    9:40   0.35   72.2    48    5.4   228     9.1   850.2    0.00 
 234    9:50   0.33   72.0    42    7.3   265    13.3   850.0    0.00 
 234   10:00   0.33   71.1    44    8.7   253    12.3   849.9    0.00 
 234   10:10   0.33   71.4    42    7.0   248    13.6   849.8    0.00 
 234   10:20   0.34   73.0    38    5.3   209    11.9   849.7    0.00 
 234   10:30   0.33   74.6    39    5.7   208    10.7   849.5    0.00 
 234   10:40   0.32   73.6    41    6.6   224    12.8   849.5    0.00 
 234   10:50   0.30   72.0    43    7.4   247    14.5   849.5    0.00 
 234   11:00   0.27   72.8    38    7.6   202    13.5   849.3    0.00 
 234   11:10   0.13   70.1    45    5.5   239     8.6   849.3    0.00 
 234   11:20   0.20   70.8    43    5.5   260    11.5   849.1    0.00 
 234   11:30   0.20   70.4    44    7.1   250    14.9   849.1    0.00 
 234   11:40   0.17   71.1    38    8.2   264    14.6   848.9    0.00 
 234   11:50   0.36   72.3    38   10.9   260    20.2   848.8    0.00 
 234   12:00   0.28   72.1    37   12.5   262    21.2   848.6    0.00 
 234   12:10   0.31   72.7    33   12.6   278    18.7   848.6    0.00 
 234   12:20   0.33   73.1    36   10.7   260    22.6   848.5    0.00 
 234   12:30   0.36   73.7    34   13.0   263    22.9   848.4    0.00 
 234   12:40   0.35   73.6    30   13.1   274    20.8   848.2    0.00 
 234   12:50   0.36   74.5    32   12.0   268    21.0   848.1    0.00 
 234   13:00   0.35   75.5    29   12.5   282    22.9   848.0    0.00 
 234   13:10   0.35   74.6    31   12.0   266    21.9   847.9    0.00 
 234   13:20   0.34   75.5    30   12.9   271    21.0   847.8    0.00 
 234   13:30   0.34   74.1    32   13.3   250    25.4   847.6    0.00 
 234   13:40   0.29   73.0    34   14.0   259    22.9   847.6    0.00 
 234   13:50   0.32   74.3    32   13.3   264    21.2   847.5    0.00 
 234   14:00   0.28   74.7    32   11.6   269    18.6   847.5    0.00 
 234   14:10   0.20   72.2    31    9.9   253    17.0   847.5    0.00 
 234   14:20   0.24   75.5    30    8.6   259    16.0   847.3    0.00 

Return to Antelope Valley graphs page.


Western Regional Climate Center,wrcc@dri.edu